sensor_id;sensor_type;location;lat;lon;timestamp;P1;durP1;ratioP1;P2;durP2;ratioP2
62633;SDS011;48704;50.534;6.442;2024-01-25T00:01:33;26.10;;;4.97;;
62633;SDS011;48704;50.534;6.442;2024-01-25T00:03:58;26.70;;;5.40;;
62633;SDS011;48704;50.534;6.442;2024-01-25T00:06:23;21.35;;;5.30;;
62633;SDS011;48704;50.534;6.442;2024-01-25T00:08:50;18.08;;;4.65;;
62633;SDS011;48704;50.534;6.442;2024-01-25T00:11:15;24.77;;;5.57;;
62633;SDS011;48704;50.534;6.442;2024-01-25T00:13:41;27.10;;;5.45;;
62633;SDS011;48704;50.534;6.442;2024-01-25T00:16:06;21.02;;;5.28;;
62633;SDS011;48704;50.534;6.442;2024-01-25T00:18:31;24.60;;;5.68;;
62633;SDS011;48704;50.534;6.442;2024-01-25T00:20:56;22.20;;;5.30;;
62633;SDS011;48704;50.534;6.442;2024-01-25T00:23:22;29.38;;;5.80;;
62633;SDS011;48704;50.534;6.442;2024-01-25T00:25:47;38.75;;;5.78;;
62633;SDS011;48704;50.534;6.442;2024-01-25T00:28:12;40.92;;;5.90;;
62633;SDS011;48704;50.534;6.442;2024-01-25T00:30:38;18.77;;;4.30;;
62633;SDS011;48704;50.534;6.442;2024-01-25T00:33:04;23.80;;;4.70;;
62633;SDS011;48704;50.534;6.442;2024-01-25T00:35:29;32.22;;;5.55;;
62633;SDS011;48704;50.534;6.442;2024-01-25T00:37:55;20.42;;;5.10;;
62633;SDS011;48704;50.534;6.442;2024-01-25T00:40:20;25.33;;;4.97;;
62633;SDS011;48704;50.534;6.442;2024-01-25T00:42:46;34.00;;;5.82;;
62633;SDS011;48704;50.534;6.442;2024-01-25T00:45:18;29.05;;;4.93;;
62633;SDS011;48704;50.534;6.442;2024-01-25T00:47:45;30.50;;;5.53;;
62633;SDS011;48704;50.534;6.442;2024-01-25T00:50:10;28.92;;;5.57;;
62633;SDS011;48704;50.534;6.442;2024-01-25T00:52:36;15.43;;;4.70;;
62633;SDS011;48704;50.534;6.442;2024-01-25T00:55:02;32.35;;;5.88;;
62633;SDS011;48704;50.534;6.442;2024-01-25T00:57:28;23.52;;;4.25;;
62633;SDS011;48704;50.534;6.442;2024-01-25T00:59:53;33.80;;;5.80;;
62633;SDS011;48704;50.534;6.442;2024-01-25T01:02:19;18.58;;;4.70;;
62633;SDS011;48704;50.534;6.442;2024-01-25T01:04:46;28.15;;;6.50;;
62633;SDS011;48704;50.534;6.442;2024-01-25T01:07:12;16.50;;;4.03;;
62633;SDS011;48704;50.534;6.442;2024-01-25T01:09:38;23.63;;;5.40;;
62633;SDS011;48704;50.534;6.442;2024-01-25T01:12:03;31.23;;;7.15;;
62633;SDS011;48704;50.534;6.442;2024-01-25T01:14:28;26.15;;;5.10;;
62633;SDS011;48704;50.534;6.442;2024-01-25T01:16:54;25.50;;;5.15;;
62633;SDS011;48704;50.534;6.442;2024-01-25T01:19:20;31.13;;;5.93;;
62633;SDS011;48704;50.534;6.442;2024-01-25T01:21:45;31.55;;;6.85;;
62633;SDS011;48704;50.534;6.442;2024-01-25T01:24:11;28.10;;;5.90;;
62633;SDS011;48704;50.534;6.442;2024-01-25T01:26:36;37.75;;;5.45;;
62633;SDS011;48704;50.534;6.442;2024-01-25T01:29:02;33.70;;;6.43;;
62633;SDS011;48704;50.534;6.442;2024-01-25T01:31:27;25.50;;;5.63;;
62633;SDS011;48704;50.534;6.442;2024-01-25T01:33:52;27.98;;;5.60;;
62633;SDS011;48704;50.534;6.442;2024-01-25T01:36:18;23.15;;;5.15;;
62633;SDS011;48704;50.534;6.442;2024-01-25T01:38:43;30.83;;;6.18;;
62633;SDS011;48704;50.534;6.442;2024-01-25T01:41:09;28.42;;;5.47;;
62633;SDS011;48704;50.534;6.442;2024-01-25T01:43:37;26.65;;;5.13;;
62633;SDS011;48704;50.534;6.442;2024-01-25T01:46:04;23.65;;;4.30;;
62633;SDS011;48704;50.534;6.442;2024-01-25T01:48:45;29.05;;;5.47;;
62633;SDS011;48704;50.534;6.442;2024-01-25T01:51:11;32.90;;;5.28;;
62633;SDS011;48704;50.534;6.442;2024-01-25T01:53:36;30.58;;;5.30;;
62633;SDS011;48704;50.534;6.442;2024-01-25T01:56:02;30.40;;;5.70;;
62633;SDS011;48704;50.534;6.442;2024-01-25T01:58:28;19.25;;;5.35;;
62633;SDS011;48704;50.534;6.442;2024-01-25T02:00:55;24.27;;;5.80;;
62633;SDS011;48704;50.534;6.442;2024-01-25T02:03:21;32.20;;;5.70;;
62633;SDS011;48704;50.534;6.442;2024-01-25T02:05:47;25.77;;;5.35;;
62633;SDS011;48704;50.534;6.442;2024-01-25T02:08:12;25.45;;;6.90;;
62633;SDS011;48704;50.534;6.442;2024-01-25T02:10:37;20.42;;;5.50;;
62633;SDS011;48704;50.534;6.442;2024-01-25T02:13:03;26.90;;;6.20;;
62633;SDS011;48704;50.534;6.442;2024-01-25T02:15:28;24.92;;;6.38;;
62633;SDS011;48704;50.534;6.442;2024-01-25T02:17:53;38.67;;;6.53;;
62633;SDS011;48704;50.534;6.442;2024-01-25T02:20:20;24.33;;;5.10;;
62633;SDS011;48704;50.534;6.442;2024-01-25T02:22:46;26.75;;;6.55;;
62633;SDS011;48704;50.534;6.442;2024-01-25T02:25:11;36.65;;;7.03;;
62633;SDS011;48704;50.534;6.442;2024-01-25T02:27:36;21.48;;;4.70;;
62633;SDS011;48704;50.534;6.442;2024-01-25T02:30:04;34.60;;;6.22;;
62633;SDS011;48704;50.534;6.442;2024-01-25T02:32:31;28.17;;;5.70;;
62633;SDS011;48704;50.534;6.442;2024-01-25T02:34:56;40.90;;;6.50;;
62633;SDS011;48704;50.534;6.442;2024-01-25T02:37:22;31.13;;;5.90;;
62633;SDS011;48704;50.534;6.442;2024-01-25T02:39:47;38.78;;;6.25;;
62633;SDS011;48704;50.534;6.442;2024-01-25T02:42:12;24.90;;;5.65;;
62633;SDS011;48704;50.534;6.442;2024-01-25T02:44:39;32.28;;;5.07;;
62633;SDS011;48704;50.534;6.442;2024-01-25T02:47:04;23.75;;;5.43;;
62633;SDS011;48704;50.534;6.442;2024-01-25T02:49:30;34.17;;;5.72;;
62633;SDS011;48704;50.534;6.442;2024-01-25T02:51:55;26.80;;;5.82;;
62633;SDS011;48704;50.534;6.442;2024-01-25T02:54:20;34.28;;;6.53;;
62633;SDS011;48704;50.534;6.442;2024-01-25T02:56:45;22.52;;;6.05;;
62633;SDS011;48704;50.534;6.442;2024-01-25T02:59:11;32.33;;;7.00;;
62633;SDS011;48704;50.534;6.442;2024-01-25T03:01:43;27.77;;;6.68;;
62633;SDS011;48704;50.534;6.442;2024-01-25T03:04:09;30.27;;;6.47;;
62633;SDS011;48704;50.534;6.442;2024-01-25T03:06:35;32.72;;;6.60;;
62633;SDS011;48704;50.534;6.442;2024-01-25T03:09:00;26.00;;;6.18;;
62633;SDS011;48704;50.534;6.442;2024-01-25T03:11:26;35.45;;;6.63;;
62633;SDS011;48704;50.534;6.442;2024-01-25T03:13:51;31.80;;;6.53;;
62633;SDS011;48704;50.534;6.442;2024-01-25T03:16:16;30.52;;;6.57;;
62633;SDS011;48704;50.534;6.442;2024-01-25T03:18:41;19.95;;;5.43;;
62633;SDS011;48704;50.534;6.442;2024-01-25T03:21:07;23.55;;;6.70;;
62633;SDS011;48704;50.534;6.442;2024-01-25T03:23:32;31.45;;;6.50;;
62633;SDS011;48704;50.534;6.442;2024-01-25T03:25:57;25.20;;;5.40;;
62633;SDS011;48704;50.534;6.442;2024-01-25T03:28:23;28.90;;;5.88;;
62633;SDS011;48704;50.534;6.442;2024-01-25T03:30:48;24.38;;;6.43;;
62633;SDS011;48704;50.534;6.442;2024-01-25T03:33:13;22.20;;;5.63;;
62633;SDS011;48704;50.534;6.442;2024-01-25T03:35:38;33.75;;;6.53;;
62633;SDS011;48704;50.534;6.442;2024-01-25T03:38:04;41.38;;;8.02;;
62633;SDS011;48704;50.534;6.442;2024-01-25T03:40:29;26.02;;;5.80;;
62633;SDS011;48704;50.534;6.442;2024-01-25T03:42:55;29.05;;;6.45;;
62633;SDS011;48704;50.534;6.442;2024-01-25T03:45:20;31.00;;;6.43;;
62633;SDS011;48704;50.534;6.442;2024-01-25T03:47:45;29.08;;;7.10;;
62633;SDS011;48704;50.534;6.442;2024-01-25T03:50:10;23.45;;;6.07;;
62633;SDS011;48704;50.534;6.442;2024-01-25T03:52:36;28.38;;;6.65;;
62633;SDS011;48704;50.534;6.442;2024-01-25T03:55:01;28.58;;;5.70;;
62633;SDS011;48704;50.534;6.442;2024-01-25T03:57:26;27.95;;;6.32;;
62633;SDS011;48704;50.534;6.442;2024-01-25T03:59:52;24.38;;;5.85;;
62633;SDS011;48704;50.534;6.442;2024-01-25T04:02:17;24.35;;;5.50;;
62633;SDS011;48704;50.534;6.442;2024-01-25T04:04:42;25.50;;;6.78;;
62633;SDS011;48704;50.534;6.442;2024-01-25T04:07:07;32.60;;;6.00;;
62633;SDS011;48704;50.534;6.442;2024-01-25T04:09:33;27.08;;;6.22;;
62633;SDS011;48704;50.534;6.442;2024-01-25T04:11:58;21.85;;;5.55;;
62633;SDS011;48704;50.534;6.442;2024-01-25T04:14:23;18.25;;;5.35;;
62633;SDS011;48704;50.534;6.442;2024-01-25T04:16:49;20.50;;;6.07;;
62633;SDS011;48704;50.534;6.442;2024-01-25T04:19:14;25.58;;;5.70;;
62633;SDS011;48704;50.534;6.442;2024-01-25T04:21:39;30.63;;;7.38;;
62633;SDS011;48704;50.534;6.442;2024-01-25T04:24:05;32.08;;;5.80;;
62633;SDS011;48704;50.534;6.442;2024-01-25T04:26:30;42.47;;;6.15;;
62633;SDS011;48704;50.534;6.442;2024-01-25T04:28:55;19.20;;;3.92;;
62633;SDS011;48704;50.534;6.442;2024-01-25T04:31:21;27.42;;;5.78;;
62633;SDS011;48704;50.534;6.442;2024-01-25T04:33:46;31.20;;;6.15;;
62633;SDS011;48704;50.534;6.442;2024-01-25T04:36:12;19.33;;;5.18;;
62633;SDS011;48704;50.534;6.442;2024-01-25T04:38:37;19.50;;;5.35;;
62633;SDS011;48704;50.534;6.442;2024-01-25T04:41:02;21.75;;;4.93;;
62633;SDS011;48704;50.534;6.442;2024-01-25T04:43:28;24.30;;;5.07;;
62633;SDS011;48704;50.534;6.442;2024-01-25T04:45:53;29.58;;;6.60;;
62633;SDS011;48704;50.534;6.442;2024-01-25T04:48:18;28.02;;;6.18;;
62633;SDS011;48704;50.534;6.442;2024-01-25T04:50:44;23.67;;;5.82;;
62633;SDS011;48704;50.534;6.442;2024-01-25T04:53:09;22.65;;;5.40;;
62633;SDS011;48704;50.534;6.442;2024-01-25T04:55:34;24.75;;;5.32;;
62633;SDS011;48704;50.534;6.442;2024-01-25T04:57:59;33.85;;;6.47;;
62633;SDS011;48704;50.534;6.442;2024-01-25T05:00:24;28.65;;;6.13;;
62633;SDS011;48704;50.534;6.442;2024-01-25T05:02:50;24.55;;;5.93;;
62633;SDS011;48704;50.534;6.442;2024-01-25T05:05:15;22.17;;;5.03;;
62633;SDS011;48704;50.534;6.442;2024-01-25T05:07:41;19.33;;;5.03;;
62633;SDS011;48704;50.534;6.442;2024-01-25T05:10:06;30.83;;;6.15;;
62633;SDS011;48704;50.534;6.442;2024-01-25T05:12:32;27.20;;;6.07;;
62633;SDS011;48704;50.534;6.442;2024-01-25T05:14:58;35.45;;;6.80;;
62633;SDS011;48704;50.534;6.442;2024-01-25T05:17:23;28.55;;;5.72;;
62633;SDS011;48704;50.534;6.442;2024-01-25T05:19:48;27.90;;;5.88;;
62633;SDS011;48704;50.534;6.442;2024-01-25T05:22:14;29.10;;;5.07;;
62633;SDS011;48704;50.534;6.442;2024-01-25T05:24:39;26.25;;;5.90;;
62633;SDS011;48704;50.534;6.442;2024-01-25T05:27:04;24.38;;;5.55;;
62633;SDS011;48704;50.534;6.442;2024-01-25T05:29:29;29.73;;;6.10;;
62633;SDS011;48704;50.534;6.442;2024-01-25T05:31:55;27.35;;;5.55;;
62633;SDS011;48704;50.534;6.442;2024-01-25T05:34:21;34.00;;;5.90;;
62633;SDS011;48704;50.534;6.442;2024-01-25T05:36:46;28.30;;;5.03;;
62633;SDS011;48704;50.534;6.442;2024-01-25T05:39:11;29.00;;;5.35;;
62633;SDS011;48704;50.534;6.442;2024-01-25T05:41:37;28.95;;;5.80;;
62633;SDS011;48704;50.534;6.442;2024-01-25T05:44:04;28.65;;;5.40;;
62633;SDS011;48704;50.534;6.442;2024-01-25T05:46:29;24.00;;;4.93;;
62633;SDS011;48704;50.534;6.442;2024-01-25T05:48:54;22.60;;;5.70;;
62633;SDS011;48704;50.534;6.442;2024-01-25T05:51:19;26.02;;;6.18;;
62633;SDS011;48704;50.534;6.442;2024-01-25T05:53:45;19.92;;;5.35;;
62633;SDS011;48704;50.534;6.442;2024-01-25T05:56:10;27.17;;;5.85;;
62633;SDS011;48704;50.534;6.442;2024-01-25T05:58:35;23.85;;;5.07;;
62633;SDS011;48704;50.534;6.442;2024-01-25T06:01:01;34.03;;;8.10;;
62633;SDS011;48704;50.534;6.442;2024-01-25T06:03:27;38.17;;;7.28;;
62633;SDS011;48704;50.534;6.442;2024-01-25T06:05:53;27.05;;;6.03;;
62633;SDS011;48704;50.534;6.442;2024-01-25T06:08:18;22.38;;;5.10;;
62633;SDS011;48704;50.534;6.442;2024-01-25T06:10:43;37.03;;;6.35;;
62633;SDS011;48704;50.534;6.442;2024-01-25T06:13:09;18.70;;;5.53;;
62633;SDS011;48704;50.534;6.442;2024-01-25T06:15:34;27.95;;;5.07;;
62633;SDS011;48704;50.534;6.442;2024-01-25T06:17:59;47.97;;;11.13;;
62633;SDS011;48704;50.534;6.442;2024-01-25T06:20:24;36.30;;;6.65;;
62633;SDS011;48704;50.534;6.442;2024-01-25T06:22:50;29.35;;;6.85;;
62633;SDS011;48704;50.534;6.442;2024-01-25T06:25:15;40.35;;;10.90;;
62633;SDS011;48704;50.534;6.442;2024-01-25T06:27:40;27.30;;;7.43;;
62633;SDS011;48704;50.534;6.442;2024-01-25T06:30:06;24.40;;;5.47;;
62633;SDS011;48704;50.534;6.442;2024-01-25T06:32:31;24.92;;;5.30;;
62633;SDS011;48704;50.534;6.442;2024-01-25T06:34:57;24.45;;;5.07;;
62633;SDS011;48704;50.534;6.442;2024-01-25T06:37:22;24.48;;;5.28;;
62633;SDS011;48704;50.534;6.442;2024-01-25T06:39:47;31.90;;;6.22;;
62633;SDS011;48704;50.534;6.442;2024-01-25T06:42:13;24.48;;;5.20;;
62633;SDS011;48704;50.534;6.442;2024-01-25T06:44:38;21.77;;;6.55;;
62633;SDS011;48704;50.534;6.442;2024-01-25T06:47:04;23.65;;;5.07;;
62633;SDS011;48704;50.534;6.442;2024-01-25T06:49:29;25.92;;;5.78;;
62633;SDS011;48704;50.534;6.442;2024-01-25T06:51:55;31.45;;;5.80;;
62633;SDS011;48704;50.534;6.442;2024-01-25T06:54:20;29.00;;;5.35;;
62633;SDS011;48704;50.534;6.442;2024-01-25T06:56:45;24.17;;;5.32;;
62633;SDS011;48704;50.534;6.442;2024-01-25T06:59:10;21.95;;;5.35;;
62633;SDS011;48704;50.534;6.442;2024-01-25T07:01:36;17.80;;;4.95;;
62633;SDS011;48704;50.534;6.442;2024-01-25T07:04:01;19.27;;;5.47;;
62633;SDS011;48704;50.534;6.442;2024-01-25T07:06:28;24.30;;;5.43;;
62633;SDS011;48704;50.534;6.442;2024-01-25T07:08:53;29.10;;;5.53;;
62633;SDS011;48704;50.534;6.442;2024-01-25T07:11:19;25.83;;;4.70;;
62633;SDS011;48704;50.534;6.442;2024-01-25T07:13:44;24.52;;;5.22;;
62633;SDS011;48704;50.534;6.442;2024-01-25T07:16:09;45.80;;;6.30;;
62633;SDS011;48704;50.534;6.442;2024-01-25T07:18:34;20.75;;;5.15;;
62633;SDS011;48704;50.534;6.442;2024-01-25T07:21:00;21.88;;;5.47;;
62633;SDS011;48704;50.534;6.442;2024-01-25T07:23:25;28.63;;;5.40;;
62633;SDS011;48704;50.534;6.442;2024-01-25T07:25:51;27.98;;;5.20;;
62633;SDS011;48704;50.534;6.442;2024-01-25T07:28:18;26.63;;;5.22;;
62633;SDS011;48704;50.534;6.442;2024-01-25T07:30:46;21.73;;;5.65;;
62633;SDS011;48704;50.534;6.442;2024-01-25T07:33:15;31.08;;;5.60;;
62633;SDS011;48704;50.534;6.442;2024-01-25T07:35:41;19.30;;;5.03;;
62633;SDS011;48704;50.534;6.442;2024-01-25T07:38:10;20.15;;;4.97;;
62633;SDS011;48704;50.534;6.442;2024-01-25T07:40:36;29.23;;;5.38;;
62633;SDS011;48704;50.534;6.442;2024-01-25T07:43:01;20.77;;;5.30;;
62633;SDS011;48704;50.534;6.442;2024-01-25T07:45:27;23.73;;;5.22;;
62633;SDS011;48704;50.534;6.442;2024-01-25T07:47:52;28.38;;;5.32;;
62633;SDS011;48704;50.534;6.442;2024-01-25T07:50:17;21.85;;;4.50;;
62633;SDS011;48704;50.534;6.442;2024-01-25T07:52:44;22.77;;;5.80;;
62633;SDS011;48704;50.534;6.442;2024-01-25T07:55:09;30.58;;;5.80;;
62633;SDS011;48704;50.534;6.442;2024-01-25T07:57:34;19.25;;;5.28;;
62633;SDS011;48704;50.534;6.442;2024-01-25T08:00:00;30.45;;;5.88;;
62633;SDS011;48704;50.534;6.442;2024-01-25T08:02:25;19.55;;;4.90;;
62633;SDS011;48704;50.534;6.442;2024-01-25T08:04:50;21.50;;;5.10;;
62633;SDS011;48704;50.534;6.442;2024-01-25T08:07:16;25.27;;;5.55;;
62633;SDS011;48704;50.534;6.442;2024-01-25T08:09:41;25.98;;;4.97;;
62633;SDS011;48704;50.534;6.442;2024-01-25T08:12:07;23.83;;;5.18;;
62633;SDS011;48704;50.534;6.442;2024-01-25T08:14:33;26.73;;;6.93;;
62633;SDS011;48704;50.534;6.442;2024-01-25T08:16:58;48.85;;;14.50;;
62633;SDS011;48704;50.534;6.442;2024-01-25T08:19:23;26.88;;;6.97;;
62633;SDS011;48704;50.534;6.442;2024-01-25T08:21:49;28.02;;;6.05;;
62633;SDS011;48704;50.534;6.442;2024-01-25T08:24:14;22.80;;;6.90;;
62633;SDS011;48704;50.534;6.442;2024-01-25T08:26:39;20.70;;;6.30;;
62633;SDS011;48704;50.534;6.442;2024-01-25T08:29:05;24.98;;;5.47;;
62633;SDS011;48704;50.534;6.442;2024-01-25T08:31:30;36.70;;;6.50;;
62633;SDS011;48704;50.534;6.442;2024-01-25T08:33:56;33.83;;;6.68;;
62633;SDS011;48704;50.534;6.442;2024-01-25T08:36:21;20.52;;;4.75;;
62633;SDS011;48704;50.534;6.442;2024-01-25T08:38:47;26.20;;;4.82;;
62633;SDS011;48704;50.534;6.442;2024-01-25T08:41:13;25.30;;;6.22;;
62633;SDS011;48704;50.534;6.442;2024-01-25T08:43:40;22.13;;;5.82;;
62633;SDS011;48704;50.534;6.442;2024-01-25T08:46:05;26.98;;;5.85;;
62633;SDS011;48704;50.534;6.442;2024-01-25T08:48:31;30.05;;;6.18;;
62633;SDS011;48704;50.534;6.442;2024-01-25T08:50:56;34.38;;;7.43;;
62633;SDS011;48704;50.534;6.442;2024-01-25T08:53:21;28.13;;;6.05;;
62633;SDS011;48704;50.534;6.442;2024-01-25T08:55:55;33.65;;;6.07;;
62633;SDS011;48704;50.534;6.442;2024-01-25T08:58:21;34.33;;;7.60;;
62633;SDS011;48704;50.534;6.442;2024-01-25T09:00:47;34.17;;;6.88;;
62633;SDS011;48704;50.534;6.442;2024-01-25T09:03:12;26.55;;;6.15;;
62633;SDS011;48704;50.534;6.442;2024-01-25T09:05:39;21.55;;;6.13;;
62633;SDS011;48704;50.534;6.442;2024-01-25T09:08:09;26.88;;;5.75;;
62633;SDS011;48704;50.534;6.442;2024-01-25T09:10:36;20.98;;;5.60;;
62633;SDS011;48704;50.534;6.442;2024-01-25T09:13:01;26.17;;;5.35;;
62633;SDS011;48704;50.534;6.442;2024-01-25T09:15:26;23.38;;;5.53;;
62633;SDS011;48704;50.534;6.442;2024-01-25T09:17:52;24.33;;;5.95;;
62633;SDS011;48704;50.534;6.442;2024-01-25T09:20:17;27.98;;;6.28;;
62633;SDS011;48704;50.534;6.442;2024-01-25T09:22:43;27.95;;;5.63;;
62633;SDS011;48704;50.534;6.442;2024-01-25T09:25:09;26.90;;;5.70;;
62633;SDS011;48704;50.534;6.442;2024-01-25T09:27:34;29.10;;;5.72;;
62633;SDS011;48704;50.534;6.442;2024-01-25T09:29:59;19.77;;;5.55;;
62633;SDS011;48704;50.534;6.442;2024-01-25T09:32:24;27.35;;;5.85;;
62633;SDS011;48704;50.534;6.442;2024-01-25T09:34:50;28.92;;;5.50;;
62633;SDS011;48704;50.534;6.442;2024-01-25T09:37:15;21.40;;;4.57;;
62633;SDS011;48704;50.534;6.442;2024-01-25T09:39:42;29.00;;;5.68;;
62633;SDS011;48704;50.534;6.442;2024-01-25T09:42:07;19.95;;;5.95;;
62633;SDS011;48704;50.534;6.442;2024-01-25T09:44:33;27.77;;;5.22;;
62633;SDS011;48704;50.534;6.442;2024-01-25T09:46:59;28.88;;;5.18;;
62633;SDS011;48704;50.534;6.442;2024-01-25T09:49:30;23.77;;;5.00;;
62633;SDS011;48704;50.534;6.442;2024-01-25T09:51:56;21.20;;;4.72;;
62633;SDS011;48704;50.534;6.442;2024-01-25T09:54:22;24.25;;;4.70;;
62633;SDS011;48704;50.534;6.442;2024-01-25T09:56:48;19.05;;;4.57;;
62633;SDS011;48704;50.534;6.442;2024-01-25T09:59:16;28.02;;;6.10;;
62633;SDS011;48704;50.534;6.442;2024-01-25T10:01:42;19.58;;;4.78;;
62633;SDS011;48704;50.534;6.442;2024-01-25T10:04:09;24.50;;;4.85;;
62633;SDS011;48704;50.534;6.442;2024-01-25T10:06:34;26.38;;;4.88;;
62633;SDS011;48704;50.534;6.442;2024-01-25T10:08:59;20.85;;;4.53;;
62633;SDS011;48704;50.534;6.442;2024-01-25T10:11:24;24.48;;;5.43;;
62633;SDS011;48704;50.534;6.442;2024-01-25T10:13:50;17.45;;;4.43;;
62633;SDS011;48704;50.534;6.442;2024-01-25T10:16:16;20.17;;;4.57;;
62633;SDS011;48704;50.534;6.442;2024-01-25T10:18:44;22.92;;;4.65;;
62633;SDS011;48704;50.534;6.442;2024-01-25T10:21:11;23.15;;;5.50;;
62633;SDS011;48704;50.534;6.442;2024-01-25T10:23:38;20.38;;;4.60;;
62633;SDS011;48704;50.534;6.442;2024-01-25T10:26:03;23.77;;;4.32;;
62633;SDS011;48704;50.534;6.442;2024-01-25T10:28:29;22.33;;;4.07;;
62633;SDS011;48704;50.534;6.442;2024-01-25T10:30:57;17.63;;;3.83;;
62633;SDS011;48704;50.534;6.442;2024-01-25T10:33:25;18.50;;;3.97;;
62633;SDS011;48704;50.534;6.442;2024-01-25T10:35:52;16.42;;;4.18;;
62633;SDS011;48704;50.534;6.442;2024-01-25T10:38:20;22.65;;;4.38;;
62633;SDS011;48704;50.534;6.442;2024-01-25T10:40:46;17.10;;;4.05;;
62633;SDS011;48704;50.534;6.442;2024-01-25T10:43:12;16.13;;;4.80;;
62633;SDS011;48704;50.534;6.442;2024-01-25T10:45:37;32.15;;;5.93;;
62633;SDS011;48704;50.534;6.442;2024-01-25T10:48:03;17.08;;;3.63;;
62633;SDS011;48704;50.534;6.442;2024-01-25T10:50:29;28.35;;;4.88;;
62633;SDS011;48704;50.534;6.442;2024-01-25T10:52:54;14.38;;;4.57;;
62633;SDS011;48704;50.534;6.442;2024-01-25T10:55:20;26.45;;;4.40;;
62633;SDS011;48704;50.534;6.442;2024-01-25T10:57:46;27.42;;;4.30;;
62633;SDS011;48704;50.534;6.442;2024-01-25T11:00:15;15.80;;;3.70;;
62633;SDS011;48704;50.534;6.442;2024-01-25T11:02:41;19.60;;;3.97;;
62633;SDS011;48704;50.534;6.442;2024-01-25T11:05:12;20.20;;;3.60;;
62633;SDS011;48704;50.534;6.442;2024-01-25T11:07:42;16.58;;;3.83;;
62633;SDS011;48704;50.534;6.442;2024-01-25T11:10:27;24.55;;;4.32;;
62633;SDS011;48704;50.534;6.442;2024-01-25T11:15:21;19.98;;;4.18;;
62633;SDS011;48704;50.534;6.442;2024-01-25T11:17:52;17.73;;;3.85;;
62633;SDS011;48704;50.534;6.442;2024-01-25T11:20:21;15.45;;;3.92;;
62633;SDS011;48704;50.534;6.442;2024-01-25T11:22:47;14.38;;;3.20;;
62633;SDS011;48704;50.534;6.442;2024-01-25T11:25:13;15.40;;;3.20;;
62633;SDS011;48704;50.534;6.442;2024-01-25T11:27:45;21.85;;;4.25;;
62633;SDS011;48704;50.534;6.442;2024-01-25T11:30:11;17.92;;;4.30;;
62633;SDS011;48704;50.534;6.442;2024-01-25T11:32:38;19.70;;;4.07;;
62633;SDS011;48704;50.534;6.442;2024-01-25T11:35:04;21.65;;;3.53;;
62633;SDS011;48704;50.534;6.442;2024-01-25T11:37:30;16.70;;;4.10;;
62633;SDS011;48704;50.534;6.442;2024-01-25T11:39:55;15.23;;;3.45;;
62633;SDS011;48704;50.534;6.442;2024-01-25T11:42:20;17.20;;;3.42;;
62633;SDS011;48704;50.534;6.442;2024-01-25T11:44:46;16.27;;;3.58;;
62633;SDS011;48704;50.534;6.442;2024-01-25T11:47:12;13.23;;;3.85;;
62633;SDS011;48704;50.534;6.442;2024-01-25T11:49:39;12.23;;;2.92;;
62633;SDS011;48704;50.534;6.442;2024-01-25T11:52:04;25.75;;;4.20;;
62633;SDS011;48704;50.534;6.442;2024-01-25T11:54:30;20.25;;;3.78;;
62633;SDS011;48704;50.534;6.442;2024-01-25T11:56:55;16.38;;;3.67;;
62633;SDS011;48704;50.534;6.442;2024-01-25T11:59:21;14.48;;;3.25;;
62633;SDS011;48704;50.534;6.442;2024-01-25T12:01:46;17.42;;;3.55;;
62633;SDS011;48704;50.534;6.442;2024-01-25T12:04:12;17.70;;;3.22;;
62633;SDS011;48704;50.534;6.442;2024-01-25T12:06:37;15.18;;;2.63;;
62633;SDS011;48704;50.534;6.442;2024-01-25T12:09:09;14.30;;;3.45;;
62633;SDS011;48704;50.534;6.442;2024-01-25T12:11:35;13.60;;;3.47;;
62633;SDS011;48704;50.534;6.442;2024-01-25T12:14:00;20.10;;;3.13;;
62633;SDS011;48704;50.534;6.442;2024-01-25T12:16:26;15.32;;;3.25;;
62633;SDS011;48704;50.534;6.442;2024-01-25T12:18:51;15.13;;;2.88;;
62633;SDS011;48704;50.534;6.442;2024-01-25T12:21:17;18.02;;;3.90;;
62633;SDS011;48704;50.534;6.442;2024-01-25T12:23:43;22.23;;;4.47;;
62633;SDS011;48704;50.534;6.442;2024-01-25T12:26:09;24.23;;;5.40;;
62633;SDS011;48704;50.534;6.442;2024-01-25T12:28:35;12.30;;;4.10;;
62633;SDS011;48704;50.534;6.442;2024-01-25T12:31:02;16.30;;;4.40;;
62633;SDS011;48704;50.534;6.442;2024-01-25T12:33:28;16.25;;;4.28;;
62633;SDS011;48704;50.534;6.442;2024-01-25T12:35:54;25.27;;;6.05;;
62633;SDS011;48704;50.534;6.442;2024-01-25T12:38:20;19.27;;;4.75;;
62633;SDS011;48704;50.534;6.442;2024-01-25T12:40:46;15.77;;;4.45;;
62633;SDS011;48704;50.534;6.442;2024-01-25T12:43:12;19.40;;;4.57;;
62633;SDS011;48704;50.534;6.442;2024-01-25T12:45:38;24.20;;;4.95;;
62633;SDS011;48704;50.534;6.442;2024-01-25T12:48:03;22.80;;;4.38;;
62633;SDS011;48704;50.534;6.442;2024-01-25T12:50:31;20.25;;;4.45;;
62633;SDS011;48704;50.534;6.442;2024-01-25T12:52:57;17.70;;;5.25;;
62633;SDS011;48704;50.534;6.442;2024-01-25T12:55:22;13.65;;;2.80;;
62633;SDS011;48704;50.534;6.442;2024-01-25T12:57:47;14.20;;;3.40;;
62633;SDS011;48704;50.534;6.442;2024-01-25T13:00:13;18.33;;;3.58;;
62633;SDS011;48704;50.534;6.442;2024-01-25T13:02:38;16.30;;;3.78;;
62633;SDS011;48704;50.534;6.442;2024-01-25T13:05:04;23.30;;;3.95;;
62633;SDS011;48704;50.534;6.442;2024-01-25T13:07:29;21.38;;;3.95;;
62633;SDS011;48704;50.534;6.442;2024-01-25T13:09:54;14.00;;;3.78;;
62633;SDS011;48704;50.534;6.442;2024-01-25T13:12:20;20.08;;;4.07;;
62633;SDS011;48704;50.534;6.442;2024-01-25T13:14:45;16.95;;;3.83;;
62633;SDS011;48704;50.534;6.442;2024-01-25T13:17:11;20.52;;;3.30;;
62633;SDS011;48704;50.534;6.442;2024-01-25T13:19:36;17.48;;;4.20;;
62633;SDS011;48704;50.534;6.442;2024-01-25T13:22:01;13.73;;;3.05;;
62633;SDS011;48704;50.534;6.442;2024-01-25T13:24:27;17.50;;;3.70;;
62633;SDS011;48704;50.534;6.442;2024-01-25T13:26:52;18.77;;;3.88;;
62633;SDS011;48704;50.534;6.442;2024-01-25T13:29:17;18.40;;;3.75;;
62633;SDS011;48704;50.534;6.442;2024-01-25T13:31:42;21.08;;;4.47;;
62633;SDS011;48704;50.534;6.442;2024-01-25T13:34:08;19.02;;;3.58;;
62633;SDS011;48704;50.534;6.442;2024-01-25T13:36:33;17.85;;;3.72;;
62633;SDS011;48704;50.534;6.442;2024-01-25T13:38:58;13.63;;;3.70;;
62633;SDS011;48704;50.534;6.442;2024-01-25T13:41:24;19.73;;;4.18;;
62633;SDS011;48704;50.534;6.442;2024-01-25T13:43:49;15.68;;;4.00;;
62633;SDS011;48704;50.534;6.442;2024-01-25T13:46:14;19.63;;;4.03;;
62633;SDS011;48704;50.534;6.442;2024-01-25T13:48:39;13.98;;;3.13;;
62633;SDS011;48704;50.534;6.442;2024-01-25T13:51:05;22.55;;;4.28;;
62633;SDS011;48704;50.534;6.442;2024-01-25T13:53:30;22.38;;;3.75;;
62633;SDS011;48704;50.534;6.442;2024-01-25T13:55:56;16.92;;;3.38;;
62633;SDS011;48704;50.534;6.442;2024-01-25T13:58:21;18.30;;;3.80;;
62633;SDS011;48704;50.534;6.442;2024-01-25T14:00:46;20.83;;;4.07;;
62633;SDS011;48704;50.534;6.442;2024-01-25T14:03:14;19.80;;;3.72;;
62633;SDS011;48704;50.534;6.442;2024-01-25T14:05:41;11.65;;;3.42;;
62633;SDS011;48704;50.534;6.442;2024-01-25T14:08:07;16.30;;;3.15;;
62633;SDS011;48704;50.534;6.442;2024-01-25T14:10:32;20.27;;;4.35;;
62633;SDS011;48704;50.534;6.442;2024-01-25T14:12:59;13.48;;;3.05;;
62633;SDS011;48704;50.534;6.442;2024-01-25T14:15:25;12.43;;;2.70;;
62633;SDS011;48704;50.534;6.442;2024-01-25T14:17:50;15.70;;;3.60;;
62633;SDS011;48704;50.534;6.442;2024-01-25T14:20:15;12.85;;;2.72;;
62633;SDS011;48704;50.534;6.442;2024-01-25T14:22:41;16.30;;;3.15;;
62633;SDS011;48704;50.534;6.442;2024-01-25T14:25:07;15.23;;;3.35;;
62633;SDS011;48704;50.534;6.442;2024-01-25T14:27:32;15.77;;;3.28;;